METAR AND TAF INFORMATION
METAR FOR SKBQ
ADDS - METARS form results

(1747 UTC 18 January 2018)
Data provider http://aviationweather.gov/adds/metars/
 
METAR text: SKBQ 181729Z 03014KT 9999 VCSH SCT015TCU BKN200 29/24 A2987 RERA RMK TCU VCSH/NW
Conditions at: SKBQ (BARRANQUILLA/ERN, CO) observed 1729 UTC 18 January 2018
Temperature: 29.0°C (84°F)
Dewpoint: 24.0°C (75°F) [RH = 74%]
Pressure (altimeter): 29.87 inches Hg (1011.6 mb)
Winds: from the NNE (30 degrees) at 16 MPH (14 knots; 7.3 m/s)
Visibility: 6 or more miles (10+ km)
Ceiling: 20000 feet AGL
Clouds: scattered clouds at 1500 feet AGL
broken clouds at 20000 feet AGL
Weather: VCSH  (showers in vicinity)

METAR text: SKBQ 181706Z 01011KT 8000 -RA BKN015TCU SCT200 28/24 A2988 RMK TCU NE NW
Conditions at: SKBQ (BARRANQUILLA/ERN, CO) observed 1706 UTC 18 January 2018
Temperature: 28.0°C (82°F)
Dewpoint: 24.0°C (75°F) [RH = 79%]
Pressure (altimeter): 29.88 inches Hg (1011.9 mb)
Winds: from the N (10 degrees) at 13 MPH (11 knots; 5.7 m/s)
Visibility: 5 miles (8 km)
Ceiling: 1500 feet AGL
Clouds: broken clouds at 1500 feet AGL
scattered clouds at 20000 feet AGL
Weather: -RA  (light rain)

METAR text: SKBQ 181700Z 02010KT 9999 BKN015 BKN200 29/24 A2989
Conditions at: SKBQ (BARRANQUILLA/ERN, CO) observed 1700 UTC 18 January 2018
Temperature: 29.0°C (84°F)
Dewpoint: 24.0°C (75°F) [RH = 74%]
Pressure (altimeter): 29.89 inches Hg (1012.3 mb)
Winds: from the NNE (20 degrees) at 12 MPH (10 knots; 5.2 m/s)
Visibility: 6 or more miles (10+ km)
Ceiling: 1500 feet AGL
Clouds: broken clouds at 1500 feet AGL
broken clouds at 20000 feet AGL
Weather: no significant weather observed at this time

Forecast for: SKBQ (BARRANQUILLA/ERN, CO)
Text: TAF SKBQ 181700Z 1818/1918 35008KT 9999 SCT015 SCT090
Forecast period: 1800 UTC 18 January 2018 to 1800 UTC 19 January 2018
Forecast type: FROM: standard forecast or significant change
Winds: from the N (350 degrees) at 9 MPH (8 knots; 4.2 m/s)
Visibility: 6 or more miles (10+ km)
Clouds: scattered clouds at 1500 feet AGL
scattered clouds at 9000 feet AGL
Weather: no significant weather forecast for this period
Text: PROB30
Forecast period: 2000 to 2200 UTC 18 January 2018
Forecast type: TEMPORARY: The following changes expected for less than half the time period
Visibility: 5 miles (8 km)
Ceiling: 9000 feet AGL
Clouds: scattered clouds at 1600 feet AGL
broken clouds at 9000 feet AGL
Weather: DZ  (drizzle)
Text: TEMPO 1820/1822 8000 DZ SCT016CB BKN090
Forecast period: 0900 to 1200 UTC 19 January 2018
Forecast type: TEMPORARY: The following changes expected for less than half the time period
Visibility: 2.49 miles (4.01 km)
Clouds: scattered clouds at 1000 feet AGL
Weather: BCFG  (patches of fog)

 AIRPORT MAP

 RUNWAY INFORMATION
Runway 05 Runway length 9842 ft Runway width 148 ft
Runway elevation 98 ft Runway displaced threshold 0 ft Runway heading 40
Runway 23 Runway length 9842 ft Runway width 148 ft
Runway elevation 98 ft Runway displaced threshold 0 ft Runway heading 220

 AIRPORT FREQUENCIES
Type APP Name BARRANQUIL Frequency 119.1 MHZ
Type ATIS Name ATIS Frequency 113.7 MHZ
Type GND Name GND Frequency 121.9 MHZ
Type RDO Name BARRANQUIL Frequency 348.8 MHZ
Type TWR Name TWR Frequency 118.1 MHZ

 AIRPORT NEAR NAVIGATION AIDS
Type NDB Name Barranquilla Frequency 264 KHZ
Type VOR-DME Name Barranquilla Frequency 113700 KHZ



v2.6.1